sensor_id;sensor_type;location;lat;lon;timestamp;P1;durP1;ratioP1;P2;durP2;ratioP2
18206;SDS011;9229;52.354;20.886;2023-08-06T00:03:25;29.25;;;15.52;;
18206;SDS011;9229;52.354;20.886;2023-08-06T00:08:29;26.58;;;14.98;;
18206;SDS011;9229;52.354;20.886;2023-08-06T00:13:32;32.92;;;16.55;;
18206;SDS011;9229;52.354;20.886;2023-08-06T00:18:36;30.70;;;15.93;;
18206;SDS011;9229;52.354;20.886;2023-08-06T00:23:38;31.73;;;15.55;;
18206;SDS011;9229;52.354;20.886;2023-08-06T00:28:42;36.38;;;16.90;;
18206;SDS011;9229;52.354;20.886;2023-08-06T00:33:44;32.10;;;17.27;;
18206;SDS011;9229;52.354;20.886;2023-08-06T00:38:46;32.22;;;17.23;;
18206;SDS011;9229;52.354;20.886;2023-08-06T00:43:49;31.83;;;18.23;;
18206;SDS011;9229;52.354;20.886;2023-08-06T00:48:51;27.70;;;16.85;;
18206;SDS011;9229;52.354;20.886;2023-08-06T00:53:53;27.58;;;16.52;;
18206;SDS011;9229;52.354;20.886;2023-08-06T00:59:00;26.15;;;16.35;;
18206;SDS011;9229;52.354;20.886;2023-08-06T01:04:03;24.48;;;13.77;;
18206;SDS011;9229;52.354;20.886;2023-08-06T01:09:08;26.60;;;14.73;;
18206;SDS011;9229;52.354;20.886;2023-08-06T01:14:21;22.25;;;13.85;;
18206;SDS011;9229;52.354;20.886;2023-08-06T01:19:29;28.73;;;13.57;;
18206;SDS011;9229;52.354;20.886;2023-08-06T01:24:32;24.40;;;14.30;;
18206;SDS011;9229;52.354;20.886;2023-08-06T01:29:35;22.20;;;12.95;;
18206;SDS011;9229;52.354;20.886;2023-08-06T01:34:41;20.02;;;12.10;;
18206;SDS011;9229;52.354;20.886;2023-08-06T01:39:47;17.67;;;11.60;;
18206;SDS011;9229;52.354;20.886;2023-08-06T01:44:49;18.60;;;12.55;;
18206;SDS011;9229;52.354;20.886;2023-08-06T01:49:51;17.30;;;11.35;;
18206;SDS011;9229;52.354;20.886;2023-08-06T01:54:55;17.40;;;11.40;;
18206;SDS011;9229;52.354;20.886;2023-08-06T01:59:56;13.57;;;9.90;;
18206;SDS011;9229;52.354;20.886;2023-08-06T02:04:59;15.77;;;10.43;;
18206;SDS011;9229;52.354;20.886;2023-08-06T02:10:02;16.65;;;10.23;;
18206;SDS011;9229;52.354;20.886;2023-08-06T02:15:05;15.90;;;9.60;;
18206;SDS011;9229;52.354;20.886;2023-08-06T02:20:08;16.45;;;10.20;;
18206;SDS011;9229;52.354;20.886;2023-08-06T02:25:12;13.70;;;9.30;;
18206;SDS011;9229;52.354;20.886;2023-08-06T02:30:15;15.77;;;10.07;;
18206;SDS011;9229;52.354;20.886;2023-08-06T02:35:17;12.60;;;8.98;;
18206;SDS011;9229;52.354;20.886;2023-08-06T02:40:21;15.75;;;9.60;;
18206;SDS011;9229;52.354;20.886;2023-08-06T02:45:23;10.80;;;8.90;;
18206;SDS011;9229;52.354;20.886;2023-08-06T02:50:26;16.30;;;9.60;;
18206;SDS011;9229;52.354;20.886;2023-08-06T02:55:29;12.98;;;9.07;;
18206;SDS011;9229;52.354;20.886;2023-08-06T03:00:31;13.15;;;9.55;;
18206;SDS011;9229;52.354;20.886;2023-08-06T03:05:34;16.52;;;10.27;;
18206;SDS011;9229;52.354;20.886;2023-08-06T03:10:38;11.45;;;9.40;;
18206;SDS011;9229;52.354;20.886;2023-08-06T03:15:40;13.98;;;10.48;;
18206;SDS011;9229;52.354;20.886;2023-08-06T03:20:44;14.23;;;10.18;;
18206;SDS011;9229;52.354;20.886;2023-08-06T03:25:48;20.80;;;11.68;;
18206;SDS011;9229;52.354;20.886;2023-08-06T03:30:58;16.55;;;11.65;;
18206;SDS011;9229;52.354;20.886;2023-08-06T03:36:01;19.20;;;12.43;;
18206;SDS011;9229;52.354;20.886;2023-08-06T03:41:08;17.08;;;11.75;;
18206;SDS011;9229;52.354;20.886;2023-08-06T03:46:10;21.52;;;12.90;;
18206;SDS011;9229;52.354;20.886;2023-08-06T03:51:12;24.38;;;14.00;;
18206;SDS011;9229;52.354;20.886;2023-08-06T03:56:18;18.83;;;13.13;;
18206;SDS011;9229;52.354;20.886;2023-08-06T04:01:20;23.17;;;14.40;;
18206;SDS011;9229;52.354;20.886;2023-08-06T04:06:22;25.42;;;13.70;;
18206;SDS011;9229;52.354;20.886;2023-08-06T04:11:26;23.77;;;14.93;;
18206;SDS011;9229;52.354;20.886;2023-08-06T04:16:27;21.85;;;14.98;;
18206;SDS011;9229;52.354;20.886;2023-08-06T04:21:29;31.63;;;16.92;;
18206;SDS011;9229;52.354;20.886;2023-08-06T04:26:33;24.77;;;16.02;;
18206;SDS011;9229;52.354;20.886;2023-08-06T04:31:35;26.00;;;16.30;;
18206;SDS011;9229;52.354;20.886;2023-08-06T04:36:37;31.23;;;16.85;;
18206;SDS011;9229;52.354;20.886;2023-08-06T04:41:43;26.15;;;15.70;;
18206;SDS011;9229;52.354;20.886;2023-08-06T04:46:45;25.83;;;17.35;;
18206;SDS011;9229;52.354;20.886;2023-08-06T04:51:47;31.70;;;16.48;;
18206;SDS011;9229;52.354;20.886;2023-08-06T04:56:50;28.17;;;17.83;;
18206;SDS011;9229;52.354;20.886;2023-08-06T05:01:52;25.48;;;16.70;;
18206;SDS011;9229;52.354;20.886;2023-08-06T05:06:54;27.58;;;16.52;;
18206;SDS011;9229;52.354;20.886;2023-08-06T05:11:57;26.30;;;16.40;;
18206;SDS011;9229;52.354;20.886;2023-08-06T05:17:02;26.40;;;15.75;;
18206;SDS011;9229;52.354;20.886;2023-08-06T05:22:05;24.33;;;16.10;;
18206;SDS011;9229;52.354;20.886;2023-08-06T05:27:08;26.10;;;15.85;;
18206;SDS011;9229;52.354;20.886;2023-08-06T05:32:10;22.00;;;16.33;;
18206;SDS011;9229;52.354;20.886;2023-08-06T05:37:12;21.55;;;15.02;;
18206;SDS011;9229;52.354;20.886;2023-08-06T05:42:15;24.35;;;15.40;;
18206;SDS011;9229;52.354;20.886;2023-08-06T05:47:17;21.95;;;13.93;;
18206;SDS011;9229;52.354;20.886;2023-08-06T05:52:19;16.95;;;12.40;;
18206;SDS011;9229;52.354;20.886;2023-08-06T05:57:23;17.02;;;13.38;;
18206;SDS011;9229;52.354;20.886;2023-08-06T06:02:26;13.98;;;12.15;;
18206;SDS011;9229;52.354;20.886;2023-08-06T06:07:28;13.55;;;11.65;;
18206;SDS011;9229;52.354;20.886;2023-08-06T06:12:32;12.57;;;10.30;;
18206;SDS011;9229;52.354;20.886;2023-08-06T06:17:34;18.25;;;11.13;;
18206;SDS011;9229;52.354;20.886;2023-08-06T06:22:36;17.83;;;10.90;;
18206;SDS011;9229;52.354;20.886;2023-08-06T06:27:40;13.38;;;10.32;;
18206;SDS011;9229;52.354;20.886;2023-08-06T06:32:55;15.95;;;10.07;;
18206;SDS011;9229;52.354;20.886;2023-08-06T06:37:57;12.18;;;9.98;;
18206;SDS011;9229;52.354;20.886;2023-08-06T06:43:00;9.93;;;8.98;;
18206;SDS011;9229;52.354;20.886;2023-08-06T06:48:02;12.63;;;8.70;;
18206;SDS011;9229;52.354;20.886;2023-08-06T06:53:07;15.40;;;8.73;;
18206;SDS011;9229;52.354;20.886;2023-08-06T06:58:10;9.40;;;8.50;;
18206;SDS011;9229;52.354;20.886;2023-08-06T07:03:12;9.77;;;8.88;;
18206;SDS011;9229;52.354;20.886;2023-08-06T07:08:14;9.80;;;8.90;;
18206;SDS011;9229;52.354;20.886;2023-08-06T07:13:17;13.15;;;8.50;;
18206;SDS011;9229;52.354;20.886;2023-08-06T07:18:19;13.77;;;8.18;;
18206;SDS011;9229;52.354;20.886;2023-08-06T07:23:22;12.35;;;8.23;;
18206;SDS011;9229;52.354;20.886;2023-08-06T07:28:26;12.63;;;8.23;;
18206;SDS011;9229;52.354;20.886;2023-08-06T07:33:28;12.85;;;8.05;;
18206;SDS011;9229;52.354;20.886;2023-08-06T07:38:30;9.75;;;8.23;;
18206;SDS011;9229;52.354;20.886;2023-08-06T07:43:33;9.23;;;8.25;;
18206;SDS011;9229;52.354;20.886;2023-08-06T07:48:37;14.13;;;8.80;;
18206;SDS011;9229;52.354;20.886;2023-08-06T07:53:39;8.05;;;7.28;;
18206;SDS011;9229;52.354;20.886;2023-08-06T07:58:42;10.05;;;8.07;;
18206;SDS011;9229;52.354;20.886;2023-08-06T08:03:44;9.02;;;7.78;;
18206;SDS011;9229;52.354;20.886;2023-08-06T08:08:47;9.63;;;7.75;;
18206;SDS011;9229;52.354;20.886;2023-08-06T08:13:50;10.23;;;8.50;;
18206;SDS011;9229;52.354;20.886;2023-08-06T08:18:52;8.60;;;7.80;;
18206;SDS011;9229;52.354;20.886;2023-08-06T08:23:54;9.10;;;8.30;;
18206;SDS011;9229;52.354;20.886;2023-08-06T08:28:57;9.07;;;7.72;;
18206;SDS011;9229;52.354;20.886;2023-08-06T08:33:59;9.65;;;8.50;;
18206;SDS011;9229;52.354;20.886;2023-08-06T08:39:01;11.30;;;7.50;;
18206;SDS011;9229;52.354;20.886;2023-08-06T08:44:06;11.93;;;7.30;;
18206;SDS011;9229;52.354;20.886;2023-08-06T08:49:10;11.63;;;7.40;;
18206;SDS011;9229;52.354;20.886;2023-08-06T08:54:12;10.80;;;7.28;;
18206;SDS011;9229;52.354;20.886;2023-08-06T08:59:17;15.02;;;7.47;;
18206;SDS011;9229;52.354;20.886;2023-08-06T09:04:19;11.18;;;7.57;;
18206;SDS011;9229;52.354;20.886;2023-08-06T09:09:25;9.18;;;7.40;;
18206;SDS011;9229;52.354;20.886;2023-08-06T09:14:30;7.65;;;6.85;;
18206;SDS011;9229;52.354;20.886;2023-08-06T09:19:32;8.27;;;7.40;;
18206;SDS011;9229;52.354;20.886;2023-08-06T09:24:34;7.90;;;7.30;;
18206;SDS011;9229;52.354;20.886;2023-08-06T09:29:51;7.78;;;7.10;;
18206;SDS011;9229;52.354;20.886;2023-08-06T09:34:55;12.73;;;6.80;;
18206;SDS011;9229;52.354;20.886;2023-08-06T09:39:58;11.13;;;6.70;;
18206;SDS011;9229;52.354;20.886;2023-08-06T09:45:07;17.40;;;6.80;;
18206;SDS011;9229;52.354;20.886;2023-08-06T09:50:14;8.55;;;6.55;;
18206;SDS011;9229;52.354;20.886;2023-08-06T09:55:16;8.02;;;6.68;;
18206;SDS011;9229;52.354;20.886;2023-08-06T10:00:21;9.43;;;6.70;;
18206;SDS011;9229;52.354;20.886;2023-08-06T10:05:23;7.68;;;6.93;;
18206;SDS011;9229;52.354;20.886;2023-08-06T10:10:26;16.88;;;6.88;;
18206;SDS011;9229;52.354;20.886;2023-08-06T10:15:31;7.63;;;6.50;;
18206;SDS011;9229;52.354;20.886;2023-08-06T10:20:34;7.10;;;6.57;;
18206;SDS011;9229;52.354;20.886;2023-08-06T10:25:39;6.75;;;6.15;;
18206;SDS011;9229;52.354;20.886;2023-08-06T10:30:45;6.38;;;5.70;;
18206;SDS011;9229;52.354;20.886;2023-08-06T10:35:51;9.35;;;5.70;;
18206;SDS011;9229;52.354;20.886;2023-08-06T10:41:04;6.70;;;6.10;;
18206;SDS011;9229;52.354;20.886;2023-08-06T10:46:10;11.95;;;5.60;;
18206;SDS011;9229;52.354;20.886;2023-08-06T10:51:13;6.43;;;5.93;;
18206;SDS011;9229;52.354;20.886;2023-08-06T10:56:16;6.65;;;5.60;;
18206;SDS011;9229;52.354;20.886;2023-08-06T11:01:20;8.18;;;5.97;;
18206;SDS011;9229;52.354;20.886;2023-08-06T11:06:23;7.35;;;5.22;;
18206;SDS011;9229;52.354;20.886;2023-08-06T11:11:26;5.57;;;5.30;;
18206;SDS011;9229;52.354;20.886;2023-08-06T11:16:30;6.28;;;5.68;;
18206;SDS011;9229;52.354;20.886;2023-08-06T11:21:35;6.65;;;6.03;;
18206;SDS011;9229;52.354;20.886;2023-08-06T11:26:37;9.30;;;6.13;;
18206;SDS011;9229;52.354;20.886;2023-08-06T11:31:41;6.03;;;5.60;;
18206;SDS011;9229;52.354;20.886;2023-08-06T11:36:43;6.50;;;5.88;;
18206;SDS011;9229;52.354;20.886;2023-08-06T11:41:46;6.20;;;5.70;;
18206;SDS011;9229;52.354;20.886;2023-08-06T11:46:51;6.57;;;5.78;;
18206;SDS011;9229;52.354;20.886;2023-08-06T11:51:55;7.28;;;6.03;;
18206;SDS011;9229;52.354;20.886;2023-08-06T11:56:58;6.55;;;6.05;;
18206;SDS011;9229;52.354;20.886;2023-08-06T12:02:01;6.15;;;5.55;;
18206;SDS011;9229;52.354;20.886;2023-08-06T12:07:05;5.38;;;4.97;;
18206;SDS011;9229;52.354;20.886;2023-08-06T12:12:09;7.22;;;5.72;;
18206;SDS011;9229;52.354;20.886;2023-08-06T12:17:12;8.82;;;5.70;;
18206;SDS011;9229;52.354;20.886;2023-08-06T12:22:14;8.93;;;5.82;;
18206;SDS011;9229;52.354;20.886;2023-08-06T12:27:16;5.28;;;4.97;;
18206;SDS011;9229;52.354;20.886;2023-08-06T12:32:20;7.20;;;5.72;;
18206;SDS011;9229;52.354;20.886;2023-08-06T12:37:22;6.00;;;5.60;;
18206;SDS011;9229;52.354;20.886;2023-08-06T12:42:25;6.80;;;6.30;;
18206;SDS011;9229;52.354;20.886;2023-08-06T12:47:28;6.95;;;6.45;;
18206;SDS011;9229;52.354;20.886;2023-08-06T12:52:30;7.13;;;6.18;;
18206;SDS011;9229;52.354;20.886;2023-08-06T12:57:32;6.50;;;5.95;;
18206;SDS011;9229;52.354;20.886;2023-08-06T13:02:36;8.75;;;7.22;;
18206;SDS011;9229;52.354;20.886;2023-08-06T13:07:38;7.75;;;7.15;;
18206;SDS011;9229;52.354;20.886;2023-08-06T13:12:40;7.07;;;6.38;;
18206;SDS011;9229;52.354;20.886;2023-08-06T13:17:43;9.30;;;6.90;;
18206;SDS011;9229;52.354;20.886;2023-08-06T13:22:46;7.07;;;6.15;;
18206;SDS011;9229;52.354;20.886;2023-08-06T13:27:50;8.50;;;6.18;;
18206;SDS011;9229;52.354;20.886;2023-08-06T13:32:53;6.15;;;5.70;;
18206;SDS011;9229;52.354;20.886;2023-08-06T13:37:56;8.25;;;5.35;;
18206;SDS011;9229;52.354;20.886;2023-08-06T13:42:59;11.15;;;5.95;;
18206;SDS011;9229;52.354;20.886;2023-08-06T13:48:02;5.45;;;5.00;;
18206;SDS011;9229;52.354;20.886;2023-08-06T13:53:05;6.18;;;5.07;;
18206;SDS011;9229;52.354;20.886;2023-08-06T13:58:07;8.48;;;6.00;;
18206;SDS011;9229;52.354;20.886;2023-08-06T14:03:10;5.65;;;5.20;;
18206;SDS011;9229;52.354;20.886;2023-08-06T14:08:12;5.32;;;4.93;;
18206;SDS011;9229;52.354;20.886;2023-08-06T14:13:14;6.15;;;5.07;;
18206;SDS011;9229;52.354;20.886;2023-08-06T14:18:19;8.13;;;5.70;;
18206;SDS011;9229;52.354;20.886;2023-08-06T14:23:20;7.75;;;5.30;;
18206;SDS011;9229;52.354;20.886;2023-08-06T14:28:23;5.50;;;5.10;;
18206;SDS011;9229;52.354;20.886;2023-08-06T14:33:26;6.22;;;5.70;;
18206;SDS011;9229;52.354;20.886;2023-08-06T14:38:28;5.70;;;5.25;;
18206;SDS011;9229;52.354;20.886;2023-08-06T14:43:30;5.10;;;4.70;;
18206;SDS011;9229;52.354;20.886;2023-08-06T14:53:55;5.60;;;5.10;;
18206;SDS011;9229;52.354;20.886;2023-08-06T14:59:25;5.10;;;4.30;;
18206;SDS011;9229;52.354;20.886;2023-08-06T15:04:57;4.97;;;4.68;;
18206;SDS011;9229;52.354;20.886;2023-08-06T15:09:59;4.53;;;4.32;;
18206;SDS011;9229;52.354;20.886;2023-08-06T15:15:01;3.30;;;3.20;;
18206;SDS011;9229;52.354;20.886;2023-08-06T15:20:06;3.47;;;3.28;;
18206;SDS011;9229;52.354;20.886;2023-08-06T15:25:09;2.80;;;2.63;;
18206;SDS011;9229;52.354;20.886;2023-08-06T15:30:11;2.45;;;2.35;;
18206;SDS011;9229;52.354;20.886;2023-08-06T15:35:15;2.25;;;2.15;;
18206;SDS011;9229;52.354;20.886;2023-08-06T15:40:17;1.88;;;1.80;;
18206;SDS011;9229;52.354;20.886;2023-08-06T15:45:19;1.80;;;1.80;;
18206;SDS011;9229;52.354;20.886;2023-08-06T15:50:23;1.60;;;1.60;;
18206;SDS011;9229;52.354;20.886;2023-08-06T15:55:26;3.35;;;2.03;;
18206;SDS011;9229;52.354;20.886;2023-08-06T16:00:28;1.88;;;1.77;;
18206;SDS011;9229;52.354;20.886;2023-08-06T16:05:31;4.20;;;1.80;;
18206;SDS011;9229;52.354;20.886;2023-08-06T16:10:33;1.40;;;1.40;;
18206;SDS011;9229;52.354;20.886;2023-08-06T16:15:36;1.42;;;1.40;;
18206;SDS011;9229;52.354;20.886;2023-08-06T16:20:42;1.30;;;1.30;;
18206;SDS011;9229;52.354;20.886;2023-08-06T16:25:44;1.40;;;1.40;;
18206;SDS011;9229;52.354;20.886;2023-08-06T16:30:47;1.00;;;1.00;;
18206;SDS011;9229;52.354;20.886;2023-08-06T16:35:51;1.30;;;1.27;;
18206;SDS011;9229;52.354;20.886;2023-08-06T16:40:53;1.42;;;1.42;;
18206;SDS011;9229;52.354;20.886;2023-08-06T16:45:56;1.35;;;1.25;;
18206;SDS011;9229;52.354;20.886;2023-08-06T16:51:00;1.48;;;1.48;;
18206;SDS011;9229;52.354;20.886;2023-08-06T16:56:03;1.10;;;1.10;;
18206;SDS011;9229;52.354;20.886;2023-08-06T17:01:05;3.13;;;1.20;;
18206;SDS011;9229;52.354;20.886;2023-08-06T17:06:09;1.30;;;1.30;;
18206;SDS011;9229;52.354;20.886;2023-08-06T17:11:14;1.13;;;1.13;;
18206;SDS011;9229;52.354;20.886;2023-08-06T17:16:17;2.10;;;1.23;;
18206;SDS011;9229;52.354;20.886;2023-08-06T17:21:21;1.80;;;1.40;;
18206;SDS011;9229;52.354;20.886;2023-08-06T17:26:23;1.40;;;1.40;;
18206;SDS011;9229;52.354;20.886;2023-08-06T17:31:31;2.25;;;1.50;;
18206;SDS011;9229;52.354;20.886;2023-08-06T17:36:35;1.75;;;1.17;;
18206;SDS011;9229;52.354;20.886;2023-08-06T17:41:40;1.20;;;1.20;;
18206;SDS011;9229;52.354;20.886;2023-08-06T17:46:43;1.60;;;1.50;;
18206;SDS011;9229;52.354;20.886;2023-08-06T17:51:48;1.50;;;1.50;;
18206;SDS011;9229;52.354;20.886;2023-08-06T17:56:51;1.42;;;1.42;;
18206;SDS011;9229;52.354;20.886;2023-08-06T18:01:53;1.67;;;1.67;;
18206;SDS011;9229;52.354;20.886;2023-08-06T18:06:58;1.92;;;1.85;;
18206;SDS011;9229;52.354;20.886;2023-08-06T18:12:07;1.90;;;1.90;;
18206;SDS011;9229;52.354;20.886;2023-08-06T18:17:16;2.45;;;2.45;;
18206;SDS011;9229;52.354;20.886;2023-08-06T18:22:20;2.38;;;2.28;;
18206;SDS011;9229;52.354;20.886;2023-08-06T18:27:23;2.85;;;2.72;;
18206;SDS011;9229;52.354;20.886;2023-08-06T18:32:25;3.10;;;2.90;;
18206;SDS011;9229;52.354;20.886;2023-08-06T18:37:29;4.43;;;2.80;;
18206;SDS011;9229;52.354;20.886;2023-08-06T18:42:35;3.55;;;3.35;;
18206;SDS011;9229;52.354;20.886;2023-08-06T18:47:39;4.00;;;3.80;;
18206;SDS011;9229;52.354;20.886;2023-08-06T18:52:44;4.25;;;3.97;;
18206;SDS011;9229;52.354;20.886;2023-08-06T18:57:49;4.20;;;4.00;;
18206;SDS011;9229;52.354;20.886;2023-08-06T19:02:51;3.47;;;3.28;;
18206;SDS011;9229;52.354;20.886;2023-08-06T19:07:57;2.60;;;2.50;;
18206;SDS011;9229;52.354;20.886;2023-08-06T19:13:00;2.10;;;2.00;;
18206;SDS011;9229;52.354;20.886;2023-08-06T19:18:08;2.00;;;2.00;;
18206;SDS011;9229;52.354;20.886;2023-08-06T19:23:12;2.15;;;2.10;;
18206;SDS011;9229;52.354;20.886;2023-08-06T19:28:18;2.20;;;2.10;;
18206;SDS011;9229;52.354;20.886;2023-08-06T19:33:21;1.27;;;1.27;;
18206;SDS011;9229;52.354;20.886;2023-08-06T19:38:32;1.52;;;1.42;;
18206;SDS011;9229;52.354;20.886;2023-08-06T19:43:35;3.00;;;1.40;;
18206;SDS011;9229;52.354;20.886;2023-08-06T19:48:37;1.30;;;1.30;;
18206;SDS011;9229;52.354;20.886;2023-08-06T19:53:41;1.33;;;1.33;;
18206;SDS011;9229;52.354;20.886;2023-08-06T19:58:43;1.15;;;1.15;;
18206;SDS011;9229;52.354;20.886;2023-08-06T20:03:46;1.40;;;1.40;;
18206;SDS011;9229;52.354;20.886;2023-08-06T20:08:49;1.35;;;1.35;;
18206;SDS011;9229;52.354;20.886;2023-08-06T20:13:52;1.10;;;1.10;;
18206;SDS011;9229;52.354;20.886;2023-08-06T20:18:55;1.13;;;1.13;;
18206;SDS011;9229;52.354;20.886;2023-08-06T20:23:59;1.80;;;1.15;;
18206;SDS011;9229;52.354;20.886;2023-08-06T20:29:01;1.10;;;1.10;;
18206;SDS011;9229;52.354;20.886;2023-08-06T20:34:07;1.00;;;1.00;;
18206;SDS011;9229;52.354;20.886;2023-08-06T20:39:11;2.67;;;0.93;;
18206;SDS011;9229;52.354;20.886;2023-08-06T20:44:13;1.20;;;1.10;;
18206;SDS011;9229;52.354;20.886;2023-08-06T20:49:15;0.85;;;0.85;;
18206;SDS011;9229;52.354;20.886;2023-08-06T20:54:18;1.02;;;1.02;;
18206;SDS011;9229;52.354;20.886;2023-08-06T20:59:21;1.00;;;1.00;;
18206;SDS011;9229;52.354;20.886;2023-08-06T21:04:23;1.33;;;1.33;;
18206;SDS011;9229;52.354;20.886;2023-08-06T21:09:28;1.00;;;1.00;;
18206;SDS011;9229;52.354;20.886;2023-08-06T21:14:30;2.22;;;1.10;;
18206;SDS011;9229;52.354;20.886;2023-08-06T21:19:32;1.00;;;1.00;;
18206;SDS011;9229;52.354;20.886;2023-08-06T21:24:37;1.10;;;1.10;;
18206;SDS011;9229;52.354;20.886;2023-08-06T21:29:41;1.25;;;1.25;;
18206;SDS011;9229;52.354;20.886;2023-08-06T21:34:44;1.95;;;1.42;;
18206;SDS011;9229;52.354;20.886;2023-08-06T21:39:49;1.45;;;1.45;;
18206;SDS011;9229;52.354;20.886;2023-08-06T21:44:52;1.25;;;1.25;;
18206;SDS011;9229;52.354;20.886;2023-08-06T21:49:54;1.13;;;1.13;;
18206;SDS011;9229;52.354;20.886;2023-08-06T21:54:57;1.10;;;1.10;;
18206;SDS011;9229;52.354;20.886;2023-08-06T21:59:59;0.90;;;0.90;;
18206;SDS011;9229;52.354;20.886;2023-08-06T22:05:02;0.90;;;0.90;;
18206;SDS011;9229;52.354;20.886;2023-08-06T22:15:36;0.80;;;0.80;;
18206;SDS011;9229;52.354;20.886;2023-08-06T22:20:39;0.90;;;0.90;;
18206;SDS011;9229;52.354;20.886;2023-08-06T22:25:42;0.90;;;0.90;;
18206;SDS011;9229;52.354;20.886;2023-08-06T22:30:44;0.80;;;0.80;;
18206;SDS011;9229;52.354;20.886;2023-08-06T22:35:46;0.80;;;0.80;;
18206;SDS011;9229;52.354;20.886;2023-08-06T22:40:53;0.75;;;0.75;;
18206;SDS011;9229;52.354;20.886;2023-08-06T22:45:58;0.88;;;0.80;;
18206;SDS011;9229;52.354;20.886;2023-08-06T22:51:00;2.38;;;0.85;;
18206;SDS011;9229;52.354;20.886;2023-08-06T22:56:04;0.90;;;0.90;;
18206;SDS011;9229;52.354;20.886;2023-08-06T23:01:08;0.82;;;0.82;;
18206;SDS011;9229;52.354;20.886;2023-08-06T23:06:10;1.17;;;0.90;;
18206;SDS011;9229;52.354;20.886;2023-08-06T23:11:14;0.68;;;0.68;;
18206;SDS011;9229;52.354;20.886;2023-08-06T23:16:17;1.35;;;0.98;;
18206;SDS011;9229;52.354;20.886;2023-08-06T23:21:19;0.70;;;0.70;;
18206;SDS011;9229;52.354;20.886;2023-08-06T23:26:22;0.80;;;0.80;;
18206;SDS011;9229;52.354;20.886;2023-08-06T23:31:24;0.80;;;0.80;;
18206;SDS011;9229;52.354;20.886;2023-08-06T23:36:26;0.98;;;0.77;;
18206;SDS011;9229;52.354;20.886;2023-08-06T23:41:30;0.82;;;0.82;;
18206;SDS011;9229;52.354;20.886;2023-08-06T23:46:33;2.92;;;0.80;;
18206;SDS011;9229;52.354;20.886;2023-08-06T23:51:36;0.75;;;0.75;;
18206;SDS011;9229;52.354;20.886;2023-08-06T23:56:39;1.02;;;1.02;;
